createdAt,value
2022-08-16T00:01:14.829Z,57.97
2022-08-16T00:03:41.558Z,66.90
2022-08-16T00:06:10.132Z,63.70
2022-08-16T00:08:37.664Z,62.50
2022-08-16T00:11:06.121Z,56.27
2022-08-16T00:13:33.301Z,57.17
2022-08-16T00:17:00.776Z,52.90
2022-08-16T00:18:55.866Z,61.20
2022-08-16T00:21:23.903Z,54.53
2022-08-16T00:23:50.642Z,57.80
2022-08-16T00:26:34.593Z,54.47
2022-08-16T00:29:04.792Z,53.93
2022-08-16T00:31:58.857Z,57.27
2022-08-16T00:34:20.911Z,53.23
2022-08-16T00:36:48.996Z,56.53
2022-08-16T00:39:22.676Z,55.60
2022-08-16T00:41:50.208Z,55.70
2022-08-16T00:44:19.916Z,61.67
2022-08-16T00:47:05.014Z,59.47
2022-08-16T00:49:39.774Z,57.43
2022-08-16T00:52:30.032Z,51.83
2022-08-16T00:54:58.311Z,51.97
2022-08-16T00:57:25.708Z,51.30
2022-08-16T00:59:58.867Z,54.97
2022-08-16T01:02:31.670Z,53.37
2022-08-16T01:05:11.191Z,57.00
2022-08-16T01:07:50.535Z,54.23
2022-08-16T01:10:19.527Z,55.60
2022-08-16T01:12:46.518Z,55.53
2022-08-16T01:15:15.648Z,54.97
2022-08-16T01:17:44.715Z,61.37
2022-08-16T01:20:23.974Z,61.83
2022-08-16T01:23:03.376Z,61.67
2022-08-16T01:25:36.694Z,58.33
2022-08-16T01:28:10.860Z,60.97
2022-08-16T01:30:51.900Z,55.30
2022-08-16T01:33:20.250Z,52.73
2022-08-16T01:35:53.607Z,53.77
2022-08-16T01:38:28.236Z,48.97
2022-08-16T01:41:02.015Z,52.57
2022-08-16T01:43:31.139Z,50.60
2022-08-16T01:46:00.064Z,49.83
2022-08-16T01:48:47.711Z,51.13
2022-08-16T01:51:18.659Z,54.27
2022-08-16T01:53:55.202Z,53.90
2022-08-16T01:56:25.472Z,51.17
2022-08-16T01:58:54.304Z,49.10
2022-08-16T02:01:21.536Z,45.93
2022-08-16T02:03:50.510Z,43.50
2022-08-16T02:06:33.877Z,45.73
2022-08-16T02:09:05.242Z,47.80
2022-08-16T02:11:43.001Z,47.03
2022-08-16T02:14:18.466Z,49.97
2022-08-16T02:16:48.528Z,46.23
2022-08-16T02:19:16.962Z,46.27
2022-08-16T02:22:08.904Z,47.00
2022-08-16T02:24:40.647Z,47.77
2022-08-16T02:27:09.429Z,41.63
2022-08-16T02:29:36.825Z,43.77
2022-08-16T02:32:50.649Z,40.40
2022-08-16T02:34:56.929Z,43.97
2022-08-16T02:37:23.705Z,43.60
2022-08-16T02:40:11.599Z,47.97
2022-08-16T02:42:39.102Z,51.67
2022-08-16T02:45:06.676Z,47.73
2022-08-16T02:48:00.455Z,47.60
2022-08-16T02:50:54.634Z,50.97
2022-08-16T02:53:11.503Z,49.77
2022-08-16T02:55:41.345Z,50.33
2022-08-16T02:58:09.137Z,52.93
2022-08-16T03:00:36.437Z,55.60
2022-08-16T03:03:04.816Z,56.20
2022-08-16T03:05:37.450Z,57.00
2022-08-16T03:08:05.446Z,60.37
2022-08-16T03:10:52.462Z,58.73
2022-08-16T03:13:20.954Z,62.97
2022-08-16T03:15:49.740Z,63.83
2022-08-16T03:18:34.142Z,61.30
2022-08-16T03:21:04.033Z,64.20
2022-08-16T03:23:35.885Z,64.47
2022-08-16T03:26:02.975Z,62.70
2022-08-16T03:28:30.769Z,66.90
2022-08-16T03:30:57.459Z,65.00
2022-08-16T03:33:24.483Z,63.53
2022-08-16T03:35:57.192Z,60.20
2022-08-16T03:38:33.973Z,54.13
2022-08-16T03:41:03.023Z,57.60
2022-08-16T03:43:51.706Z,63.27
2022-08-16T03:46:47.997Z,57.60
2022-08-16T03:49:11.327Z,63.73
2022-08-16T03:51:39.575Z,60.40
2022-08-16T03:54:12.349Z,57.60
2022-08-16T03:56:56.770Z,63.97
2022-08-16T03:59:25.998Z,63.53
2022-08-16T04:01:56.850Z,60.33
2022-08-16T04:04:32.586Z,66.87
2022-08-16T04:07:00.642Z,58.87
2022-08-16T04:09:31.126Z,73.67
2022-08-16T04:12:03.447Z,69.90
2022-08-16T04:14:38.615Z,68.57
2022-08-16T04:17:14.875Z,76.53
2022-08-16T04:19:45.535Z,73.30
2022-08-16T04:22:17.429Z,72.50
2022-08-16T04:24:54.429Z,83.33
2022-08-16T04:27:22.279Z,80.70
2022-08-16T04:29:52.561Z,82.10
2022-08-16T04:32:20.064Z,80.10
2022-08-16T04:34:46.845Z,76.53
2022-08-16T04:37:14.117Z,82.30
2022-08-16T04:39:47.371Z,86.53
2022-08-16T04:42:25.909Z,83.90
2022-08-16T04:44:55.693Z,86.17
2022-08-16T04:47:25.566Z,80.47
2022-08-16T04:50:00.880Z,81.33
2022-08-16T04:52:33.186Z,75.13
2022-08-16T04:55:05.800Z,67.33
2022-08-16T04:57:32.762Z,57.63
2022-08-16T05:00:31.215Z,49.17
2022-08-16T05:02:54.857Z,36.93
2022-08-16T05:05:24.006Z,33.77
2022-08-16T05:07:58.370Z,28.57
2022-08-16T05:10:27.455Z,24.90
2022-08-16T05:12:54.495Z,26.23
2022-08-16T05:15:24.499Z,22.87
2022-08-16T05:17:55.494Z,23.43
2022-08-16T05:20:38.643Z,21.93
2022-08-16T05:23:15.059Z,22.33
2022-08-16T05:25:48.435Z,20.37
2022-08-16T05:28:15.925Z,19.53
2022-08-16T05:30:43.685Z,19.37
2022-08-16T05:33:16.652Z,18.53
2022-08-16T05:35:44.953Z,19.10
2022-08-16T05:38:32.268Z,19.97
2022-08-16T05:41:04.557Z,19.50
2022-08-16T05:43:32.234Z,19.93
2022-08-16T05:46:29.028Z,22.23
2022-08-16T05:49:03.129Z,17.67
2022-08-16T05:51:38.690Z,18.57
2022-08-16T05:54:07.505Z,17.93
2022-08-16T05:56:37.271Z,18.77
2022-08-16T05:59:06.348Z,20.00
2022-08-16T06:01:38.016Z,20.27
2022-08-16T06:04:12.821Z,20.10
2022-08-16T06:06:43.489Z,24.17
2022-08-16T06:09:24.698Z,20.73
2022-08-16T06:11:52.379Z,19.67
2022-08-16T06:14:19.585Z,20.27
2022-08-16T06:16:50.853Z,20.03
2022-08-16T06:19:17.874Z,19.50
2022-08-16T06:21:44.953Z,22.87
2022-08-16T06:24:54.242Z,21.60
2022-08-16T06:26:59.974Z,20.90
2022-08-16T06:29:26.663Z,21.83
2022-08-16T06:31:54.203Z,22.33
2022-08-16T06:34:53.262Z,22.30
2022-08-16T06:37:10.353Z,20.93
2022-08-16T06:39:46.717Z,23.53
2022-08-16T06:42:18.513Z,21.20
2022-08-16T06:44:46.982Z,19.60
2022-08-16T06:47:17.114Z,21.27
2022-08-16T06:49:54.141Z,21.97
2022-08-16T06:52:58.437Z,21.60
2022-08-16T06:55:13.638Z,20.93
2022-08-16T06:57:41.954Z,22.83
2022-08-16T07:00:24.125Z,19.63
2022-08-16T07:02:54.345Z,22.40
2022-08-16T07:05:27.350Z,19.37
2022-08-16T07:08:11.350Z,17.33
2022-08-16T07:10:38.601Z,17.90
2022-08-16T07:13:11.992Z,18.87
2022-08-16T07:15:50.144Z,18.40
2022-08-16T07:18:24.489Z,17.80
2022-08-16T07:20:52.917Z,16.27
2022-08-16T07:23:21.647Z,16.70
2022-08-16T07:26:05.517Z,16.63
2022-08-16T07:28:35.283Z,16.10
2022-08-16T07:31:02.582Z,16.03
2022-08-16T07:33:53.583Z,16.00
2022-08-16T07:36:23.986Z,16.20
2022-08-16T07:38:51.604Z,15.80
2022-08-16T07:41:18.946Z,16.20
2022-08-16T07:43:47.557Z,15.13
2022-08-16T07:46:39.059Z,15.43
2022-08-16T07:49:05.594Z,16.07
2022-08-16T07:51:38.380Z,16.33
2022-08-16T07:54:10.222Z,14.37
2022-08-16T07:56:37.705Z,16.80
2022-08-16T07:59:04.727Z,16.60
2022-08-16T08:01:31.603Z,15.50
2022-08-16T08:04:00.290Z,15.63
2022-08-16T08:06:32.475Z,15.30
2022-08-16T08:09:00.044Z,15.57
2022-08-16T08:11:28.836Z,15.77
2022-08-16T08:13:57.204Z,13.83
2022-08-16T08:16:30.936Z,14.27
2022-08-16T08:19:00.977Z,18.70
2022-08-16T08:22:01.136Z,19.92
2022-08-16T08:24:18.708Z,13.75
2022-08-16T08:26:50.014Z,12.75
2022-08-16T08:29:17.592Z,12.80
2022-08-16T08:31:51.567Z,14.48
2022-08-16T08:34:18.736Z,13.43
2022-08-16T08:36:47.962Z,18.48
2022-08-16T08:39:15.357Z,14.63
2022-08-16T08:41:43.326Z,18.40
2022-08-16T08:44:28.407Z,11.68
2022-08-16T08:47:01.827Z,12.63
2022-08-16T08:49:46.226Z,11.73
2022-08-16T08:52:34.216Z,10.68
2022-08-16T08:55:05.038Z,11.30
2022-08-16T08:57:38.339Z,11.43
2022-08-16T09:00:13.022Z,11.88
2022-08-16T09:02:41.306Z,10.80
2022-08-16T09:05:15.636Z,10.80
2022-08-16T09:08:01.837Z,10.18
2022-08-16T09:10:32.179Z,10.48
2022-08-16T09:13:01.398Z,10.65
2022-08-16T09:15:32.884Z,10.88
2022-08-16T09:18:00.997Z,10.60
2022-08-16T09:20:29.933Z,11.05
2022-08-16T09:23:01.756Z,12.02
2022-08-16T09:25:33.821Z,11.27
2022-08-16T09:28:09.066Z,9.32
2022-08-16T09:30:43.469Z,8.70
2022-08-16T09:33:17.834Z,7.82
2022-08-16T09:35:47.278Z,8.35
2022-08-16T09:38:32.026Z,8.25
2022-08-16T09:41:00.323Z,7.95
2022-08-16T09:43:53.315Z,9.45
2022-08-16T09:46:44.561Z,8.68
2022-08-16T09:49:03.691Z,8.88
2022-08-16T09:51:37.335Z,7.70
2022-08-16T09:54:05.657Z,8.73
2022-08-16T09:56:34.462Z,9.30
2022-08-16T09:59:07.426Z,8.85
2022-08-16T10:01:35.988Z,11.05
2022-08-16T10:04:04.564Z,10.40
2022-08-16T10:06:34.870Z,9.43
2022-08-16T10:09:05.298Z,10.57
2022-08-16T10:11:52.585Z,10.18
2022-08-16T10:14:19.821Z,10.52
2022-08-16T10:16:48.835Z,13.60
2022-08-16T10:19:19.365Z,10.77
2022-08-16T10:21:46.385Z,9.77
2022-08-16T10:24:28.511Z,9.45
2022-08-16T10:27:16.309Z,8.90
2022-08-16T10:30:00.161Z,9.23
2022-08-16T10:32:32.391Z,11.70
2022-08-16T10:34:59.475Z,11.07
2022-08-16T10:37:32.641Z,10.05
2022-08-16T10:40:05.979Z,9.45
2022-08-16T10:42:33.570Z,9.63
2022-08-16T10:45:01.896Z,8.00
2022-08-16T10:47:33.203Z,8.98
2022-08-16T10:50:06.935Z,11.50
2022-08-16T10:52:46.961Z,7.80
2022-08-16T10:58:11.669Z,10.43
2022-08-16T11:00:40.292Z,7.30
2022-08-16T11:03:42.320Z,7.75
2022-08-16T11:05:59.457Z,7.40
2022-08-16T11:08:35.939Z,8.38
2022-08-16T11:11:12.940Z,8.65
2022-08-16T11:14:10.630Z,9.02
2022-08-16T11:19:22.614Z,7.88
2022-08-16T11:24:45.073Z,7.40
2022-08-16T11:27:19.830Z,11.32
2022-08-16T11:29:49.203Z,6.97
2022-08-16T11:32:20.191Z,7.05
2022-08-16T11:35:10.645Z,7.78
2022-08-16T11:40:33.229Z,7.93
2022-08-16T11:43:01.029Z,7.40
2022-08-16T11:45:28.485Z,10.60
2022-08-16T11:48:00.406Z,12.85
2022-08-16T11:50:27.256Z,7.00
2022-08-16T11:52:54.056Z,8.95
2022-08-16T11:55:23.490Z,7.45
2022-08-16T11:57:51.478Z,7.57
2022-08-16T12:00:33.949Z,9.10
2022-08-16T12:03:11.039Z,7.20
2022-08-16T12:05:39.738Z,8.50
2022-08-16T12:08:08.673Z,7.32
2022-08-16T12:10:38.254Z,7.97
2022-08-16T12:13:05.371Z,7.40
2022-08-16T12:15:32.146Z,7.40
2022-08-16T12:18:02.005Z,8.68
2022-08-16T12:20:35.043Z,6.70
2022-08-16T12:23:02.591Z,7.43
2022-08-16T12:25:31.500Z,6.00
2022-08-16T12:27:59.209Z,5.78
2022-08-16T12:30:36.244Z,6.57
2022-08-16T12:33:07.435Z,10.77
2022-08-16T12:35:36.794Z,7.03
2022-08-16T12:38:37.781Z,7.70
2022-08-16T12:40:57.111Z,8.13
2022-08-16T12:43:24.643Z,9.05
2022-08-16T12:45:54.401Z,8.50
2022-08-16T12:48:44.332Z,8.13
2022-08-16T12:51:23.804Z,8.23
2022-08-16T12:53:52.548Z,7.90
2022-08-16T12:56:22.176Z,6.60
2022-08-16T12:58:53.018Z,8.00
2022-08-16T13:01:26.115Z,8.65
2022-08-16T13:04:08.191Z,7.57
2022-08-16T13:06:40.385Z,9.23
2022-08-16T13:09:21.548Z,9.65
2022-08-16T13:12:00.980Z,7.30
2022-08-16T13:14:33.883Z,10.07
2022-08-16T13:17:02.012Z,9.98
2022-08-16T13:19:44.215Z,6.70
2022-08-16T13:22:18.630Z,6.43
2022-08-16T13:24:46.647Z,10.83
2022-08-16T13:27:13.835Z,6.40
2022-08-16T13:29:44.097Z,7.33
2022-08-16T13:32:40.135Z,8.13
2022-08-16T13:34:57.974Z,8.17
2022-08-16T13:37:25.411Z,6.13
2022-08-16T13:39:52.964Z,11.40
2022-08-16T13:42:19.807Z,7.33
2022-08-16T13:44:55.949Z,7.00
2022-08-16T13:47:23.790Z,5.97
2022-08-16T13:49:56.684Z,6.17
2022-08-16T13:52:25.010Z,6.23
2022-08-16T13:54:52.722Z,6.93
2022-08-16T13:57:20.035Z,7.83
2022-08-16T13:59:50.043Z,7.60
2022-08-16T14:02:17.354Z,7.20
2022-08-16T14:04:45.725Z,5.73
2022-08-16T14:07:20.023Z,9.50
2022-08-16T14:09:55.213Z,7.90
2022-08-16T14:12:25.278Z,6.43
2022-08-16T14:14:57.288Z,6.23
2022-08-16T14:17:26.129Z,6.87
2022-08-16T14:19:53.190Z,6.13
2022-08-16T14:22:31.261Z,7.40
2022-08-16T14:24:59.743Z,7.13
2022-08-16T14:27:29.108Z,6.60
2022-08-16T14:29:58.391Z,5.47
2022-08-16T14:32:33.082Z,7.10
2022-08-16T14:35:02.213Z,9.23
2022-08-16T14:37:29.688Z,7.90
2022-08-16T14:40:00.082Z,8.00
2022-08-16T14:42:28.260Z,5.37
2022-08-16T14:44:55.013Z,6.83
2022-08-16T14:47:22.675Z,6.63
2022-08-16T14:49:49.692Z,6.63
2022-08-16T14:52:44.453Z,7.00
2022-08-16T14:55:11.707Z,5.10
2022-08-16T14:57:41.199Z,4.90
2022-08-16T15:00:11.498Z,5.30
2022-08-16T15:02:40.377Z,5.37
2022-08-16T15:05:09.513Z,5.60
2022-08-16T15:07:36.926Z,4.67
2022-08-16T15:10:08.606Z,5.50
2022-08-16T15:12:50.217Z,6.07
2022-08-16T15:15:19.795Z,6.87
2022-08-16T15:17:56.758Z,6.37
2022-08-16T15:20:26.182Z,6.07
2022-08-16T15:22:57.107Z,6.40
2022-08-16T15:25:29.209Z,6.53
2022-08-16T15:28:01.596Z,5.37
2022-08-16T15:30:58.510Z,5.13
2022-08-16T15:33:18.433Z,5.37
2022-08-16T15:35:49.525Z,5.43
2022-08-16T15:38:57.153Z,6.53
2022-08-16T15:41:04.578Z,5.73
2022-08-16T15:43:39.413Z,6.90
2022-08-16T15:46:35.104Z,8.40
2022-08-16T15:49:16.039Z,5.10
2022-08-16T15:51:46.436Z,4.90
2022-08-16T15:54:21.435Z,5.27
2022-08-16T15:56:56.835Z,4.73
2022-08-16T15:59:27.174Z,5.33
2022-08-16T16:01:55.957Z,6.40
2022-08-16T16:04:25.558Z,9.13
2022-08-16T16:06:55.097Z,5.60
2022-08-16T16:09:26.103Z,4.73
2022-08-16T16:12:02.050Z,5.57
2022-08-16T16:14:30.490Z,9.67
2022-08-16T16:17:00.159Z,4.73
2022-08-16T16:19:29.065Z,8.80
2022-08-16T16:21:58.343Z,5.30
2022-08-16T16:24:31.389Z,5.60
2022-08-16T16:26:58.624Z,9.37
2022-08-16T16:29:25.527Z,5.37
2022-08-16T16:31:59.462Z,6.97
2022-08-16T16:34:32.295Z,5.43
2022-08-16T16:37:02.479Z,6.40
2022-08-16T16:39:32.772Z,6.37
2022-08-16T16:41:59.713Z,5.10
2022-08-16T16:44:33.487Z,7.43
2022-08-16T16:47:03.700Z,6.53
2022-08-16T16:49:32.309Z,7.57
2022-08-16T16:52:06.999Z,7.57
2022-08-16T16:54:34.884Z,7.93
2022-08-16T16:57:01.778Z,4.80
2022-08-16T16:59:28.730Z,5.17
2022-08-16T17:02:38.180Z,6.00
2022-08-16T17:04:45.278Z,6.00
2022-08-16T17:07:12.444Z,6.40
2022-08-16T17:09:40.601Z,5.17
2022-08-16T17:12:08.993Z,7.07
2022-08-16T17:14:35.893Z,6.33
2022-08-16T17:17:08.519Z,6.60
2022-08-16T17:19:41.039Z,6.27
2022-08-16T17:22:15.195Z,5.40
2022-08-16T17:24:45.062Z,16.13
2022-08-16T17:27:17.957Z,6.73
2022-08-16T17:29:46.653Z,8.10
2022-08-16T17:32:33.550Z,7.83
2022-08-16T17:35:10.228Z,7.03
2022-08-16T17:37:50.838Z,8.50
2022-08-16T17:40:40.809Z,6.73
2022-08-16T17:43:08.808Z,18.63
2022-08-16T17:45:35.964Z,11.03
2022-08-16T17:48:02.968Z,18.50
2022-08-16T17:50:29.699Z,12.83
2022-08-16T17:53:00.128Z,11.93
2022-08-16T17:55:30.233Z,6.57
2022-08-16T17:58:00.295Z,7.40
2022-08-16T18:00:29.020Z,6.97
2022-08-16T18:02:57.741Z,7.80
2022-08-16T18:05:26.523Z,7.40
2022-08-16T18:07:53.672Z,11.00
2022-08-16T18:10:33.107Z,9.30
2022-08-16T18:13:03.731Z,7.70
2022-08-16T18:15:32.041Z,10.03
2022-08-16T18:18:00.025Z,6.27
2022-08-16T18:20:45.781Z,9.43
2022-08-16T18:23:15.315Z,8.47
2022-08-16T18:25:48.087Z,8.70
2022-08-16T18:28:15.529Z,6.47
2022-08-16T18:30:50.916Z,10.30
2022-08-16T18:33:19.296Z,7.93
2022-08-16T18:35:46.454Z,7.10
2022-08-16T18:38:13.268Z,6.50
2022-08-16T18:40:40.756Z,7.00
2022-08-16T18:43:10.557Z,7.27
2022-08-16T18:45:42.603Z,8.13
2022-08-16T18:48:11.137Z,13.87
2022-08-16T18:51:03.446Z,9.23
2022-08-16T18:53:28.078Z,9.30
2022-08-16T18:55:57.986Z,15.20
2022-08-16T18:58:26.345Z,11.33
2022-08-16T19:00:56.639Z,8.87
2022-08-16T19:03:27.215Z,12.87
2022-08-16T19:05:56.835Z,9.10
2022-08-16T19:08:26.270Z,10.67
2022-08-16T19:10:53.545Z,10.33
2022-08-16T19:13:23.501Z,11.00
2022-08-16T19:15:52.925Z,10.10
2022-08-16T19:18:21.214Z,11.23
2022-08-16T19:20:48.530Z,11.10
2022-08-16T19:23:18.178Z,15.53
2022-08-16T19:25:48.568Z,10.23
2022-08-16T19:28:49.541Z,11.27
2022-08-16T19:31:07.996Z,11.77
2022-08-16T19:33:34.857Z,9.13
2022-08-16T19:36:06.168Z,9.33
2022-08-16T19:38:33.253Z,11.30
2022-08-16T19:41:00.836Z,9.70
2022-08-16T19:43:27.779Z,13.20
2022-08-16T19:45:54.671Z,13.90
2022-08-16T19:48:22.327Z,11.73
2022-08-16T19:50:49.127Z,10.60
2022-08-16T19:53:18.833Z,14.80
2022-08-16T19:55:47.346Z,10.47
2022-08-16T19:58:16.165Z,9.03
2022-08-16T20:00:44.312Z,10.80
2022-08-16T20:03:14.970Z,10.13
2022-08-16T20:05:45.937Z,9.47
2022-08-16T20:08:13.157Z,12.97
2022-08-16T20:10:41.435Z,13.03
2022-08-16T20:13:13.474Z,14.30
2022-08-16T20:15:41.442Z,11.97
2022-08-16T20:18:17.232Z,12.40
2022-08-16T20:20:53.044Z,10.80
2022-08-16T20:23:24.325Z,11.80
2022-08-16T20:25:54.752Z,11.77
2022-08-16T20:28:51.792Z,10.70
2022-08-16T20:31:09.010Z,13.03
2022-08-16T20:33:36.078Z,11.87
2022-08-16T20:36:04.106Z,13.67
2022-08-16T20:38:31.016Z,12.40
2022-08-16T20:40:58.033Z,12.30
2022-08-16T20:43:25.060Z,11.03
2022-08-16T20:45:51.814Z,12.60
2022-08-16T20:48:19.010Z,12.87
2022-08-16T20:50:46.138Z,11.37
2022-08-16T20:53:13.554Z,19.00
2022-08-16T20:55:41.090Z,13.40
2022-08-16T20:58:07.902Z,14.47
2022-08-16T21:00:34.816Z,15.20
2022-08-16T21:03:05.633Z,13.53
2022-08-16T21:05:33.525Z,19.63
2022-08-16T21:08:00.634Z,14.27
2022-08-16T21:10:28.279Z,17.53
2022-08-16T21:12:58.667Z,21.87
2022-08-16T21:15:27.218Z,17.07
2022-08-16T21:17:54.143Z,17.40
2022-08-16T21:20:22.237Z,16.33
2022-08-16T21:22:52.937Z,16.47
2022-08-16T21:25:23.149Z,14.57
2022-08-16T21:28:40.562Z,14.03
2022-08-16T21:30:37.899Z,20.60
2022-08-16T21:33:06.596Z,15.40
2022-08-16T21:35:34.648Z,12.83
2022-08-16T21:38:29.419Z,14.27
2022-08-16T21:40:48.555Z,16.57
2022-08-16T21:43:22.255Z,15.93
2022-08-16T21:45:54.865Z,15.07
2022-08-16T21:48:33.600Z,16.10
2022-08-16T21:51:01.700Z,18.83
2022-08-16T21:53:28.961Z,15.80
2022-08-16T21:55:57.449Z,16.03
2022-08-16T21:58:25.426Z,14.90
2022-08-16T22:00:52.896Z,17.50
2022-08-16T22:03:20.445Z,14.17
2022-08-16T22:06:10.083Z,16.20
2022-08-16T22:08:35.521Z,16.03
2022-08-16T22:11:09.423Z,14.87
2022-08-16T22:13:37.458Z,18.07
2022-08-16T22:16:07.404Z,16.27
2022-08-16T22:18:34.425Z,15.77
2022-08-16T22:21:01.293Z,19.00
2022-08-16T22:23:29.008Z,16.87
2022-08-16T22:25:56.022Z,16.77
2022-08-16T22:28:26.939Z,16.30
2022-08-16T22:30:54.341Z,17.30
2022-08-16T22:33:23.190Z,16.50
2022-08-16T22:35:53.070Z,20.83
2022-08-16T22:38:54.610Z,15.30
2022-08-16T22:41:07.698Z,14.50
2022-08-16T22:43:34.451Z,14.43
2022-08-16T22:46:02.202Z,15.73
2022-08-16T22:48:29.270Z,15.10
2022-08-16T22:50:56.325Z,14.30
2022-08-16T22:53:28.797Z,16.00
2022-08-16T22:55:57.171Z,16.90
2022-08-16T22:58:33.960Z,14.93
2022-08-16T23:01:04.998Z,15.33
2022-08-16T23:03:31.732Z,16.23
2022-08-16T23:05:59.735Z,14.93
2022-08-16T23:08:38.168Z,17.50
2022-08-16T23:11:08.296Z,16.77
2022-08-16T23:13:35.217Z,14.00
2022-08-16T23:16:10.804Z,14.20
2022-08-16T23:18:39.310Z,14.57
2022-08-16T23:21:09.519Z,18.77
2022-08-16T23:23:37.550Z,19.77
2022-08-16T23:26:45.140Z,17.40
2022-08-16T23:28:53.647Z,14.67
2022-08-16T23:31:21.127Z,16.17
2022-08-16T23:33:48.098Z,18.27
2022-08-16T23:36:15.022Z,16.07
2022-08-16T23:38:42.293Z,14.73
2022-08-16T23:41:11.779Z,13.87
2022-08-16T23:43:42.335Z,17.27
2022-08-16T23:46:13.291Z,13.87
2022-08-16T23:49:58.644Z,16.03
2022-08-16T23:51:29.128Z,19.00
2022-08-16T23:53:56.483Z,19.07
2022-08-16T23:56:24.934Z,15.43
2022-08-16T23:58:54.333Z,13.90
